createdAt,value
2023-05-12T00:01:16.621Z,6.87
2023-05-12T00:04:18.914Z,5.35
2023-05-12T00:07:21.208Z,5.18
2023-05-12T00:10:23.240Z,5.05
2023-05-12T00:13:25.275Z,5.67
2023-05-12T00:16:27.288Z,5.47
2023-05-12T00:19:29.357Z,6.47
2023-05-12T00:22:31.727Z,6.03
2023-05-12T00:25:33.902Z,8.20
2023-05-12T00:28:36.011Z,6.00
2023-05-12T00:31:38.027Z,5.97
2023-05-12T00:34:40.446Z,7.93
2023-05-12T00:37:42.853Z,4.23
2023-05-12T00:40:44.818Z,7.30
2023-05-12T00:43:46.892Z,5.65
2023-05-12T00:46:49.274Z,6.93
2023-05-12T00:49:51.710Z,3.45
2023-05-12T00:52:53.708Z,5.77
2023-05-12T00:55:57.621Z,5.97
2023-05-12T00:59:01.762Z,3.83
2023-05-12T01:02:04.391Z,4.50
2023-05-12T01:05:06.681Z,4.80
2023-05-12T01:08:09.417Z,8.60
2023-05-12T01:11:11.596Z,4.80
2023-05-12T01:14:14.202Z,4.07
2023-05-12T01:17:16.674Z,4.60
2023-05-12T01:20:19.039Z,4.82
2023-05-12T01:23:21.385Z,4.03
2023-05-12T01:26:23.791Z,4.50
2023-05-12T01:29:26.041Z,5.20
2023-05-12T01:32:29.509Z,4.78
2023-05-12T01:35:31.991Z,5.03
2023-05-12T01:38:36.032Z,5.73
2023-05-12T01:41:38.370Z,5.20
2023-05-12T01:44:40.860Z,4.30
2023-05-12T01:47:42.982Z,3.95
2023-05-12T01:50:45.356Z,7.20
2023-05-12T01:53:52.051Z,4.13
2023-05-12T01:56:54.490Z,5.13
2023-05-12T01:59:56.761Z,4.78
2023-05-12T02:02:58.985Z,4.10
2023-05-12T02:06:01.652Z,3.87
2023-05-12T02:09:04.406Z,7.88
2023-05-12T02:12:06.867Z,4.82
2023-05-12T02:15:09.622Z,6.10
2023-05-12T02:18:15.566Z,4.13
2023-05-12T02:21:17.917Z,4.50
2023-05-12T02:24:21.364Z,4.55
2023-05-12T02:27:23.472Z,5.47
2023-05-12T02:30:25.876Z,5.10
2023-05-12T02:33:28.103Z,5.60
2023-05-12T02:36:30.125Z,5.13
2023-05-12T02:39:32.518Z,5.70
2023-05-12T02:42:35.743Z,6.53
2023-05-12T02:45:38.212Z,3.85
2023-05-12T02:48:40.386Z,5.78
2023-05-12T02:51:42.594Z,6.30
2023-05-12T02:54:44.985Z,3.93
2023-05-12T02:57:47.186Z,4.30
2023-05-12T03:00:56.927Z,4.65
2023-05-12T03:04:05.777Z,5.73
2023-05-12T03:07:08.995Z,4.50
2023-05-12T03:10:11.173Z,3.95
2023-05-12T03:13:13.407Z,4.97
2023-05-12T03:16:19.388Z,5.40
2023-05-12T03:19:21.686Z,4.37
2023-05-12T03:22:25.216Z,5.18
2023-05-12T03:25:27.611Z,5.25
2023-05-12T03:28:29.717Z,5.25
2023-05-12T03:31:31.904Z,7.30
2023-05-12T03:34:34.712Z,7.43
2023-05-12T03:37:37.622Z,7.47
2023-05-12T03:40:40.327Z,6.33
2023-05-12T03:43:44.049Z,4.35
2023-05-12T03:46:47.596Z,6.97
2023-05-12T03:49:50.098Z,6.10
2023-05-12T03:52:56.118Z,6.03
2023-05-12T03:55:58.626Z,7.45
2023-05-12T03:59:01.963Z,5.07
2023-05-12T04:02:04.589Z,5.35
2023-05-12T04:05:08.295Z,5.53
2023-05-12T04:08:10.943Z,6.03
2023-05-12T04:11:13.980Z,5.20
2023-05-12T04:14:17.067Z,4.53
2023-05-12T04:17:19.355Z,4.40
2023-05-12T04:20:22.437Z,7.43
2023-05-12T04:23:24.704Z,5.32
2023-05-12T04:26:27.060Z,6.47
2023-05-12T04:29:39.523Z,7.15
2023-05-12T04:32:41.689Z,6.20
2023-05-12T04:35:44.020Z,8.35
2023-05-12T04:38:48.215Z,5.73
2023-05-12T04:41:50.840Z,7.25
2023-05-12T04:44:53.929Z,4.82
2023-05-12T04:47:56.315Z,5.72
2023-05-12T04:50:59.604Z,5.13
2023-05-12T04:54:05.074Z,7.00
2023-05-12T04:57:12.487Z,7.15
2023-05-12T05:00:16.699Z,5.87
2023-05-12T05:03:22.660Z,5.20
2023-05-12T05:06:28.482Z,4.88
2023-05-12T05:09:30.898Z,8.43
2023-05-12T05:12:36.028Z,5.30
2023-05-12T05:15:39.742Z,6.13
2023-05-12T05:18:46.484Z,6.55
2023-05-12T05:21:49.570Z,6.00
2023-05-12T05:24:52.220Z,6.13
2023-05-12T05:27:55.707Z,5.28
2023-05-12T05:30:58.508Z,7.38
2023-05-12T05:34:01.181Z,5.53
2023-05-12T05:37:03.733Z,5.00
2023-05-12T05:40:06.355Z,5.28
2023-05-12T05:43:08.374Z,5.03
2023-05-12T05:46:10.730Z,6.38
2023-05-12T05:49:14.202Z,5.68
2023-05-12T05:52:16.604Z,6.37
2023-05-12T05:55:19.112Z,6.30
2023-05-12T05:58:21.625Z,6.60
2023-05-12T06:01:24.474Z,17.00
2023-05-12T06:04:26.772Z,26.85
2023-05-12T06:07:28.948Z,13.38
2023-05-12T06:10:38.273Z,9.57
2023-05-12T06:13:44.380Z,5.43
2023-05-12T06:16:46.609Z,7.00
2023-05-12T06:19:50.062Z,6.60
2023-05-12T06:22:52.263Z,6.07
2023-05-12T06:25:54.414Z,7.25
2023-05-12T06:28:56.851Z,6.63
2023-05-12T06:32:25.913Z,7.20
2023-05-12T06:35:41.896Z,6.47
2023-05-12T06:38:45.777Z,7.10
2023-05-12T06:41:49.554Z,6.13
2023-05-12T06:45:12.284Z,5.50
2023-05-12T06:48:15.168Z,7.18
2023-05-12T06:51:17.268Z,5.95
2023-05-12T06:54:19.485Z,7.10
2023-05-12T06:57:21.438Z,7.40
2023-05-12T07:00:23.887Z,6.65
2023-05-12T07:03:26.386Z,7.10
2023-05-12T07:06:28.774Z,5.32
2023-05-12T07:09:30.969Z,6.70
2023-05-12T07:13:05.048Z,6.10
2023-05-12T07:16:07.640Z,6.45
2023-05-12T07:19:09.790Z,8.40
2023-05-12T07:22:12.029Z,5.25
2023-05-12T07:25:14.225Z,5.20
2023-05-12T07:28:16.685Z,5.07
2023-05-12T07:31:18.785Z,6.28
2023-05-12T07:34:21.376Z,5.07
2023-05-12T07:37:23.874Z,5.75
2023-05-12T07:40:26.193Z,5.50
2023-05-12T07:43:28.333Z,8.57
2023-05-12T07:46:30.697Z,6.47
2023-05-12T07:49:32.911Z,5.28
2023-05-12T07:52:34.976Z,5.30
2023-05-12T07:55:37.353Z,5.50
2023-05-12T07:58:39.897Z,6.90
2023-05-12T08:01:42.864Z,7.78
2023-05-12T08:04:44.957Z,6.95
2023-05-12T08:07:47.347Z,7.07
2023-05-12T08:10:49.371Z,5.43
2023-05-12T08:13:51.510Z,6.45
2023-05-12T08:16:53.710Z,7.10
2023-05-12T08:19:56.539Z,9.68
2023-05-12T08:22:58.979Z,5.90
2023-05-12T08:26:01.007Z,6.77
2023-05-12T08:29:04.923Z,6.90
2023-05-12T08:32:07.287Z,8.90
2023-05-12T08:35:09.654Z,6.80
2023-05-12T08:38:11.731Z,6.97
2023-05-12T08:41:19.999Z,7.70
2023-05-12T08:47:54.881Z,5.60
2023-05-12T08:51:00.647Z,6.78
2023-05-12T08:54:05.092Z,7.87
2023-05-12T08:57:12.721Z,6.67
2023-05-12T09:00:16.401Z,9.95
2023-05-12T09:03:41.762Z,6.95
2023-05-12T09:06:44.153Z,8.25
2023-05-12T09:09:47.270Z,10.80
2023-05-12T09:12:50.401Z,7.03
2023-05-12T09:15:56.572Z,8.93
2023-05-12T09:19:06.894Z,9.10
2023-05-12T09:22:35.947Z,8.70
2023-05-12T09:25:39.785Z,10.10
2023-05-12T09:28:41.936Z,8.80
2023-05-12T09:31:53.451Z,12.98
2023-05-12T09:34:56.152Z,10.60
2023-05-12T09:38:05.308Z,10.10
2023-05-12T09:41:08.244Z,12.85
2023-05-12T09:44:11.288Z,11.00
2023-05-12T09:47:15.519Z,10.33
2023-05-12T09:50:19.217Z,11.63
2023-05-12T09:53:23.044Z,16.05
2023-05-12T09:56:26.973Z,9.95
2023-05-12T09:59:30.863Z,10.33
2023-05-12T10:02:33.297Z,9.82
2023-05-12T10:05:35.551Z,10.55
2023-05-12T10:08:38.019Z,11.85
2023-05-12T10:11:40.350Z,13.23
2023-05-12T10:14:42.848Z,13.63
2023-05-12T10:17:45.773Z,11.57
2023-05-12T10:20:48.456Z,13.07
2023-05-12T10:23:50.516Z,14.63
2023-05-12T10:26:53.713Z,12.02
2023-05-12T10:29:55.759Z,14.40
2023-05-12T10:32:58.187Z,15.85
2023-05-12T10:36:00.383Z,16.37
2023-05-12T10:39:06.434Z,12.88
2023-05-12T10:42:08.811Z,14.40
2023-05-12T10:45:17.972Z,13.27
2023-05-12T10:48:20.216Z,15.07
2023-05-12T10:51:26.635Z,14.68
2023-05-12T10:54:28.646Z,12.98
2023-05-12T10:57:32.026Z,13.50
2023-05-12T11:00:44.396Z,15.67
2023-05-12T11:03:47.804Z,12.07
2023-05-12T11:06:59.280Z,14.52
2023-05-12T11:10:07.964Z,15.25
2023-05-12T11:13:11.036Z,18.20
2023-05-12T11:16:13.736Z,12.07
2023-05-12T11:19:18.267Z,12.02
2023-05-12T11:22:21.697Z,11.25
2023-05-12T11:25:25.886Z,10.80
2023-05-12T11:28:27.981Z,11.17
2023-05-12T11:31:30.009Z,9.43
2023-05-12T11:34:32.102Z,11.07
2023-05-12T11:37:36.984Z,10.95
2023-05-12T11:40:40.076Z,10.32
2023-05-12T11:43:43.245Z,12.38
2023-05-12T11:47:01.706Z,10.70
2023-05-12T11:50:03.964Z,11.87
2023-05-12T11:53:09.356Z,11.43
2023-05-12T11:56:17.708Z,10.95
2023-05-12T11:59:29.872Z,10.00
2023-05-12T12:02:32.778Z,9.45
2023-05-12T12:05:34.880Z,9.57
2023-05-12T12:08:40.619Z,8.25
2023-05-12T12:11:42.814Z,9.23
2023-05-12T12:14:45.352Z,10.30
2023-05-12T12:17:47.877Z,9.37
2023-05-12T12:20:50.043Z,8.82
2023-05-12T12:23:52.368Z,10.75
2023-05-12T12:27:00.296Z,8.48
2023-05-12T12:30:04.116Z,9.00
2023-05-12T12:33:06.304Z,8.00
2023-05-12T12:36:08.929Z,8.05
2023-05-12T12:39:11.606Z,7.72
2023-05-12T12:42:14.156Z,7.30
2023-05-12T12:45:18.525Z,7.88
2023-05-12T12:48:22.292Z,8.70
2023-05-12T12:51:26.854Z,7.63
2023-05-12T12:54:35.613Z,6.77
2023-05-12T12:57:37.789Z,8.60
2023-05-12T13:00:39.867Z,9.00
2023-05-12T13:03:41.926Z,9.15
2023-05-12T13:06:44.445Z,9.95
2023-05-12T13:09:46.806Z,7.95
2023-05-12T13:12:49.412Z,8.95
2023-05-12T13:15:53.164Z,7.63
2023-05-12T13:18:55.298Z,8.17
2023-05-12T13:21:57.439Z,9.13
2023-05-12T13:25:00.069Z,9.20
2023-05-12T13:28:02.903Z,9.02
2023-05-12T13:31:06.227Z,10.67
2023-05-12T13:34:08.714Z,8.23
2023-05-12T13:37:11.336Z,11.25
2023-05-12T13:40:14.307Z,7.95
2023-05-12T13:43:16.459Z,9.13
2023-05-12T13:46:18.432Z,10.40
2023-05-12T13:49:20.528Z,9.77
2023-05-12T13:52:23.033Z,10.73
2023-05-12T13:55:25.846Z,9.77
2023-05-12T13:58:27.984Z,10.05
2023-05-12T14:01:30.863Z,9.60
2023-05-12T14:04:33.284Z,11.63
2023-05-12T14:07:35.649Z,10.47
2023-05-12T14:10:37.912Z,10.60
2023-05-12T14:13:40.634Z,8.35
2023-05-12T14:16:42.763Z,10.07
2023-05-12T14:19:45.363Z,12.10
2023-05-12T14:22:48.104Z,10.15
2023-05-12T14:25:50.534Z,16.08
2023-05-12T14:28:53.173Z,8.60
2023-05-12T14:31:55.821Z,9.40
2023-05-12T14:34:57.988Z,8.25
2023-05-12T14:38:00.322Z,8.50
2023-05-12T14:41:02.351Z,7.60
2023-05-12T14:44:05.185Z,7.23
2023-05-12T14:47:09.354Z,7.35
2023-05-12T14:50:12.388Z,8.80
2023-05-12T14:53:15.457Z,8.13
2023-05-12T14:56:17.933Z,6.93
2023-05-12T14:59:20.402Z,8.48
2023-05-12T15:02:22.636Z,7.45
2023-05-12T15:05:32.637Z,7.85
2023-05-12T15:08:46.975Z,8.23
2023-05-12T15:11:49.982Z,11.07
2023-05-12T15:14:54.440Z,11.32
2023-05-12T15:17:57.176Z,10.32
2023-05-12T15:20:59.488Z,12.17
2023-05-12T15:24:01.858Z,10.88
2023-05-12T15:27:04.928Z,8.40
2023-05-12T15:30:07.794Z,9.77
2023-05-12T15:33:10.477Z,9.23
2023-05-12T15:36:13.991Z,12.10
2023-05-12T15:39:21.753Z,11.35
2023-05-12T15:42:29.998Z,11.45
2023-05-12T15:45:37.997Z,9.63
2023-05-12T15:48:40.065Z,9.23
2023-05-12T15:51:42.540Z,9.63
2023-05-12T15:54:45.641Z,10.05
2023-05-12T15:57:47.663Z,10.50
2023-05-12T16:00:49.668Z,12.07
2023-05-12T16:03:52.905Z,9.40
2023-05-12T16:06:55.982Z,11.68
2023-05-12T16:09:59.023Z,8.65
2023-05-12T16:13:04.738Z,9.73
2023-05-12T16:16:08.727Z,9.63
2023-05-12T16:19:21.595Z,9.43
2023-05-12T16:22:24.440Z,7.80
2023-05-12T16:25:27.325Z,14.57
2023-05-12T16:28:29.997Z,10.82
2023-05-12T16:31:32.072Z,10.25
2023-05-12T16:34:34.272Z,13.03
2023-05-12T16:37:36.264Z,11.23
2023-05-12T16:40:38.354Z,12.68
2023-05-12T16:43:40.469Z,16.50
2023-05-12T16:46:43.235Z,115.10
2023-05-12T16:49:45.845Z,62.33
2023-05-12T16:52:48.230Z,74.82
2023-05-12T16:55:50.585Z,64.00
2023-05-12T16:58:52.618Z,33.10
2023-05-12T17:01:55.069Z,19.00
2023-05-12T17:04:57.541Z,13.18
2023-05-12T17:07:59.629Z,12.70
2023-05-12T17:11:02.008Z,12.93
2023-05-12T17:14:04.925Z,11.50
2023-05-12T17:17:07.592Z,9.93
2023-05-12T17:20:10.265Z,9.70
2023-05-12T17:23:12.879Z,9.70
2023-05-12T17:26:15.748Z,9.15
2023-05-12T17:29:18.414Z,10.70
2023-05-12T17:32:20.574Z,10.27
2023-05-12T17:35:23.208Z,14.37
2023-05-12T17:38:25.507Z,9.82
2023-05-12T17:41:29.188Z,12.27
2023-05-12T17:44:32.381Z,9.82
2023-05-12T17:47:34.524Z,9.77
2023-05-12T17:50:36.671Z,10.18
2023-05-12T17:53:39.111Z,10.63
2023-05-12T17:56:41.830Z,11.13
2023-05-12T17:59:44.564Z,10.60
2023-05-12T18:02:46.675Z,11.93
2023-05-12T18:05:51.866Z,10.82
2023-05-12T18:08:54.098Z,12.55
2023-05-12T18:11:56.740Z,12.20
2023-05-12T18:14:58.919Z,12.37
2023-05-12T18:18:05.098Z,14.02
2023-05-12T18:21:07.536Z,12.77
2023-05-12T18:24:09.615Z,14.10
2023-05-12T18:27:11.789Z,13.37
2023-05-12T18:30:14.494Z,10.38
2023-05-12T18:33:16.635Z,11.90
2023-05-12T18:36:19.427Z,9.30
2023-05-12T18:39:21.448Z,13.57
2023-05-12T18:42:23.606Z,10.75
2023-05-12T18:45:25.966Z,12.00
2023-05-12T18:48:28.148Z,10.67
2023-05-12T18:51:30.271Z,10.70
2023-05-12T18:54:32.765Z,9.93
2023-05-12T18:57:35.482Z,12.43
2023-05-12T19:00:37.583Z,17.03
2023-05-12T19:03:40.364Z,21.73
2023-05-12T19:06:42.833Z,16.20
2023-05-12T19:09:50.937Z,23.30
2023-05-12T19:12:53.308Z,18.20
2023-05-12T19:15:55.682Z,12.60
2023-05-12T19:18:58.463Z,11.48
2023-05-12T19:22:01.088Z,11.98
2023-05-12T19:25:04.240Z,10.27
2023-05-12T19:28:06.344Z,11.40
2023-05-12T19:31:08.392Z,13.45
2023-05-12T19:34:10.400Z,11.93
2023-05-12T19:37:12.389Z,11.47
2023-05-12T19:40:14.414Z,16.45
2023-05-12T19:43:16.439Z,11.55
2023-05-12T19:46:18.512Z,12.55
2023-05-12T19:49:22.176Z,11.43
2023-05-12T19:52:24.804Z,14.60
2023-05-12T19:55:27.196Z,13.20
2023-05-12T19:58:29.224Z,15.13
2023-05-12T20:01:31.259Z,13.73
2023-05-12T20:04:33.285Z,13.55
2023-05-12T20:07:35.738Z,14.23
2023-05-12T20:10:37.724Z,12.03
2023-05-12T20:13:39.678Z,12.77
2023-05-12T20:16:41.704Z,12.23
2023-05-12T20:19:43.845Z,11.80
2023-05-12T20:22:45.857Z,14.47
2023-05-12T20:25:47.813Z,14.23
2023-05-12T20:28:51.432Z,14.82
2023-05-12T20:31:54.512Z,15.60
2023-05-12T20:34:56.728Z,14.00
2023-05-12T20:37:58.786Z,13.63
2023-05-12T20:41:06.779Z,13.77
2023-05-12T20:44:08.995Z,11.38
2023-05-12T20:47:11.168Z,13.73
2023-05-12T20:50:13.844Z,12.05
2023-05-12T20:53:16.518Z,13.48
2023-05-12T20:56:19.136Z,13.68
2023-05-12T20:59:21.512Z,12.73
2023-05-12T21:02:27.096Z,12.80
2023-05-12T21:05:29.184Z,13.30
2023-05-12T21:08:31.225Z,15.48
2023-05-12T21:11:33.226Z,13.10
2023-05-12T21:14:42.265Z,12.10
2023-05-12T21:17:44.781Z,12.98
2023-05-12T21:20:46.906Z,13.63
2023-05-12T21:23:49.326Z,14.25
2023-05-12T21:26:51.684Z,15.15
2023-05-12T21:29:54.065Z,12.82
2023-05-12T21:32:56.175Z,13.67
2023-05-12T21:35:58.599Z,13.27
2023-05-12T21:39:00.981Z,15.35
2023-05-12T21:42:03.812Z,13.52
2023-05-12T21:45:06.305Z,13.43
2023-05-12T21:48:08.889Z,14.02
2023-05-12T21:51:10.920Z,15.48
2023-05-12T21:54:13.307Z,13.27
2023-05-12T21:57:15.224Z,12.70
2023-05-12T22:00:20.300Z,12.00
2023-05-12T22:03:24.979Z,11.77
2023-05-12T22:06:27.532Z,9.90
2023-05-12T22:09:31.218Z,10.93
2023-05-12T22:12:33.698Z,14.10
2023-05-12T22:15:35.777Z,12.05
2023-05-12T22:18:38.311Z,11.77
2023-05-12T22:21:40.321Z,13.80
2023-05-12T22:24:43.845Z,12.40
2023-05-12T22:27:45.914Z,10.55
2023-05-12T22:30:47.931Z,10.02
2023-05-12T22:33:50.535Z,11.20
2023-05-12T22:36:52.591Z,10.60
2023-05-12T22:39:54.897Z,12.18
2023-05-12T22:42:57.308Z,12.18
2023-05-12T22:45:59.422Z,12.87
2023-05-12T22:49:01.573Z,12.38
2023-05-12T22:52:03.607Z,11.15
2023-05-12T22:55:06.421Z,12.60
2023-05-12T22:58:10.311Z,10.47
2023-05-12T23:01:12.362Z,10.73
2023-05-12T23:04:14.357Z,11.85
2023-05-12T23:07:16.524Z,11.20
2023-05-12T23:10:19.056Z,11.70
2023-05-12T23:13:21.362Z,12.25
2023-05-12T23:16:26.760Z,12.18
2023-05-12T23:19:28.827Z,12.52
2023-05-12T23:22:31.463Z,11.00
2023-05-12T23:25:35.192Z,12.43
2023-05-12T23:28:37.266Z,12.13
2023-05-12T23:31:39.259Z,13.13
2023-05-12T23:34:41.372Z,11.57
2023-05-12T23:37:43.781Z,11.00
2023-05-12T23:40:45.849Z,11.13
2023-05-12T23:43:47.925Z,10.85
2023-05-12T23:46:50.063Z,12.03
2023-05-12T23:49:52.503Z,11.05
2023-05-12T23:52:54.738Z,10.63
2023-05-12T23:55:57.067Z,12.88
2023-05-12T23:58:59.502Z,9.53
